Terminal Aerodrome Forecast
Issued by NWS Nashville, TN

Current Version | Previous Version | Text Only | Print | Product List | Glossary On
Versions: 1 2 3 4 5 6 7 8 9 10 11 12 13 14 15 16
000
FTUS44 KOHX 280500
TAFBNA
TAF
KBNA 280535Z 2806/2906 02006KT P6SM BKN015 OVC035
     FM280900 04004KT P6SM SCT030
     FM281500 11006KT P6SM SKC
     FM290000 16004KT P6SM SCT200=

USA.gov is the U.S. government's official web portal to all federal, state and local government web resources and services.